createdAt,value
2022-11-24T00:00:36.462Z,29.35
2022-11-24T00:05:39.754Z,31.08
2022-11-24T00:10:43.091Z,29.13
2022-11-24T00:15:47.809Z,33.40
2022-11-24T00:20:54.128Z,29.77
2022-11-24T00:25:57.451Z,28.30
2022-11-24T00:31:02.523Z,25.85
2022-11-24T00:36:06.367Z,27.85
2022-11-24T00:41:10.054Z,30.80
2022-11-24T00:46:14.950Z,34.22
2022-11-24T00:51:19.459Z,29.52
2022-11-24T00:56:22.758Z,28.48
2022-11-24T01:01:29.180Z,31.15
2022-11-24T01:06:35.374Z,27.58
2022-11-24T01:11:52.453Z,27.10
2022-11-24T01:16:57.572Z,29.02
2022-11-24T01:22:00.894Z,32.05
2022-11-24T01:27:04.218Z,27.67
2022-11-24T01:32:08.970Z,27.77
2022-11-24T01:37:12.327Z,27.08
2022-11-24T01:42:15.637Z,26.52
2022-11-24T01:47:34.802Z,38.35
2022-11-24T01:52:42.358Z,30.02
2022-11-24T01:57:48.727Z,30.42
2022-11-24T02:02:54.554Z,27.58
2022-11-24T02:08:01.797Z,21.02
2022-11-24T02:13:05.919Z,29.35
2022-11-24T02:18:10.783Z,25.53
2022-11-24T02:23:22.322Z,27.02
2022-11-24T02:28:30.668Z,26.98
2022-11-24T02:33:35.638Z,27.10
2022-11-24T02:43:47.898Z,25.90
2022-11-24T02:48:51.237Z,26.27
2022-11-24T02:53:54.552Z,26.67
2022-11-24T02:58:59.282Z,29.15
2022-11-24T03:04:02.565Z,27.98
2022-11-24T03:09:06.239Z,20.02
2022-11-24T03:14:11.076Z,25.95
2022-11-24T03:19:14.576Z,26.88
2022-11-24T03:24:17.853Z,26.73
2022-11-24T03:29:23.355Z,25.17
2022-11-24T03:34:26.650Z,29.05
2022-11-24T03:39:29.980Z,24.25
2022-11-24T03:44:34.905Z,30.15
2022-11-24T03:49:38.349Z,27.17
2022-11-24T03:54:42.483Z,24.00
2022-11-24T03:59:47.450Z,26.17
2022-11-24T04:09:55.942Z,19.67
2022-11-24T04:15:00.506Z,21.23
2022-11-24T04:20:03.802Z,29.95
2022-11-24T04:25:08.715Z,22.77
2022-11-24T04:35:16.839Z,24.17
2022-11-24T04:40:20.450Z,31.52
2022-11-24T04:45:25.288Z,23.88
2022-11-24T04:50:28.511Z,25.05
2022-11-24T04:55:31.686Z,22.50
2022-11-24T05:00:36.220Z,23.38
2022-11-24T05:05:39.366Z,31.48
2022-11-24T05:10:43.155Z,23.10
2022-11-24T05:15:47.736Z,27.48
2022-11-24T05:20:50.896Z,24.13
2022-11-24T05:25:54.515Z,21.42
2022-11-24T05:31:01.945Z,24.55
2022-11-24T05:36:07.482Z,25.13
2022-11-24T05:41:10.637Z,25.98
2022-11-24T05:46:15.278Z,22.20
2022-11-24T05:51:18.643Z,22.63
2022-11-24T05:56:21.800Z,22.05
2022-11-24T06:01:26.394Z,21.02
2022-11-24T06:06:29.562Z,23.38
2022-11-24T06:11:32.801Z,21.33
2022-11-24T06:16:37.719Z,19.48
2022-11-24T06:26:43.887Z,24.98
2022-11-24T06:31:48.498Z,28.25
2022-11-24T06:36:51.666Z,20.70
2022-11-24T06:41:55.024Z,20.42
2022-11-24T06:46:59.582Z,24.50
2022-11-24T06:52:02.758Z,25.20
2022-11-24T06:57:05.918Z,20.70
2022-11-24T07:02:11.733Z,18.75
2022-11-24T07:07:14.933Z,20.65
2022-11-24T07:12:18.272Z,19.63
2022-11-24T07:17:22.857Z,19.85
2022-11-24T07:22:26.001Z,20.00
2022-11-24T07:27:30.342Z,15.60
2022-11-24T07:32:34.930Z,16.43
2022-11-24T07:37:38.058Z,16.70
2022-11-24T07:42:41.222Z,13.73
2022-11-24T07:47:45.815Z,14.98
2022-11-24T07:52:48.992Z,9.70
2022-11-24T07:57:52.125Z,9.60
2022-11-24T08:02:56.739Z,8.85
2022-11-24T08:08:01.443Z,11.60
2022-11-24T08:13:04.646Z,5.43
2022-11-24T08:18:10.489Z,10.98
2022-11-24T08:23:13.647Z,6.20
2022-11-24T08:28:16.906Z,6.88
2022-11-24T08:33:21.450Z,3.67
2022-11-24T08:38:24.603Z,3.50
2022-11-24T08:43:27.746Z,5.10
2022-11-24T08:48:32.475Z,4.32
2022-11-24T08:53:35.754Z,5.10
2022-11-24T08:58:39.680Z,4.47
2022-11-24T09:03:50.425Z,6.70
2022-11-24T09:08:55.833Z,3.03
2022-11-24T09:13:59.070Z,1.35
2022-11-24T09:19:06.444Z,2.35
2022-11-24T09:24:09.782Z,1.30
2022-11-24T09:29:13.795Z,1.55
2022-11-24T09:34:19.412Z,2.17
2022-11-24T09:39:22.817Z,0.90
2022-11-24T09:44:47.035Z,2.45
2022-11-24T09:49:59.176Z,1.08
2022-11-24T09:55:04.233Z,2.83
2022-11-24T10:00:14.167Z,3.13
2022-11-24T10:05:19.446Z,1.00
2022-11-24T10:10:27.099Z,2.63
2022-11-24T10:15:42.864Z,1.15
2022-11-24T10:20:59.351Z,2.30
2022-11-24T10:26:06.235Z,1.98
2022-11-24T10:31:24.810Z,2.00
2022-11-24T10:36:39.583Z,2.30
2022-11-24T10:41:50.077Z,3.42
2022-11-24T10:46:53.420Z,1.80
2022-11-24T10:52:07.952Z,3.50
2022-11-24T10:57:27.719Z,2.43
2022-11-24T11:02:35.064Z,1.75
2022-11-24T11:07:39.777Z,2.83
2022-11-24T11:12:44.680Z,2.15
2022-11-24T11:17:50.452Z,2.78
2022-11-24T11:22:56.498Z,2.72
2022-11-24T11:28:25.319Z,2.53
2022-11-24T11:38:54.695Z,3.28
2022-11-24T11:44:08.752Z,4.38
2022-11-24T11:49:14.063Z,1.00
2022-11-24T11:54:35.813Z,2.00
2022-11-24T11:59:59.188Z,1.60
2022-11-24T12:05:05.301Z,2.10
2022-11-24T12:10:22.985Z,3.97
2022-11-24T12:15:35.083Z,1.70
2022-11-24T12:20:51.416Z,1.40
2022-11-24T12:26:00.533Z,1.63
2022-11-24T12:31:07.948Z,3.15
2022-11-24T12:36:18.316Z,2.25
2022-11-24T12:41:42.644Z,3.08
2022-11-24T12:46:58.082Z,2.05
2022-11-24T12:52:08.031Z,1.88
2022-11-24T12:57:19.272Z,2.22
2022-11-24T13:02:31.318Z,3.92
2022-11-24T13:07:45.253Z,2.65
2022-11-24T13:12:59.145Z,1.75
2022-11-24T13:18:11.869Z,2.67
2022-11-24T13:23:25.719Z,5.03
2022-11-24T13:29:13.046Z,4.47
2022-11-24T13:34:55.853Z,2.78
2022-11-24T13:40:00.779Z,2.35
2022-11-24T13:45:07.508Z,3.53
2022-11-24T13:50:16.523Z,1.00
2022-11-24T13:55:40.332Z,2.53
2022-11-24T14:01:02.867Z,2.33
2022-11-24T14:06:06.370Z,3.13
2022-11-24T14:11:16.339Z,4.13
2022-11-24T14:16:22.520Z,2.45
2022-11-24T14:21:29.026Z,3.00
2022-11-24T14:26:35.832Z,1.80
2022-11-24T14:31:40.580Z,3.53
2022-11-24T14:41:53.777Z,3.15
2022-11-24T14:47:08.862Z,4.18
2022-11-24T14:52:15.214Z,3.78
2022-11-24T14:57:27.907Z,4.82
2022-11-24T15:02:45.715Z,6.07
2022-11-24T15:07:50.695Z,6.30
2022-11-24T15:12:56.972Z,8.63
2022-11-24T15:18:02.973Z,6.85
2022-11-24T15:23:25.284Z,5.40
2022-11-24T15:28:28.747Z,11.65
2022-11-24T15:33:33.819Z,9.35
2022-11-24T15:38:36.950Z,10.38
2022-11-24T15:43:41.650Z,9.30
2022-11-24T15:48:46.299Z,8.30
2022-11-24T15:53:55.785Z,8.90
2022-11-24T15:59:03.950Z,8.85
2022-11-24T16:04:08.534Z,7.43
2022-11-24T16:09:16.886Z,9.80
2022-11-24T16:14:20.235Z,8.50
2022-11-24T16:19:24.871Z,7.15
2022-11-24T16:24:27.996Z,10.73
2022-11-24T16:29:36.897Z,9.85
2022-11-24T16:34:42.833Z,11.57
2022-11-24T16:39:50.017Z,8.93
2022-11-24T16:44:53.540Z,11.63
2022-11-24T16:49:58.126Z,10.63
2022-11-24T16:55:01.832Z,12.52
2022-11-24T17:00:05.911Z,13.00
2022-11-24T17:05:11.065Z,12.53
2022-11-24T17:10:14.259Z,12.93
2022-11-24T17:15:32.581Z,15.57
2022-11-24T17:20:37.478Z,15.02
2022-11-24T17:25:40.609Z,12.20
2022-11-24T17:30:43.873Z,14.52
2022-11-24T17:35:48.430Z,16.38
2022-11-24T17:40:52.407Z,13.43
2022-11-24T17:45:56.607Z,23.77
2022-11-24T17:51:02.245Z,14.97
2022-11-24T17:56:05.783Z,15.48
2022-11-24T18:01:09.329Z,15.63
2022-11-24T18:06:15.172Z,12.05
2022-11-24T18:11:20.078Z,12.57
2022-11-24T18:21:27.784Z,10.38
2022-11-24T18:26:30.946Z,10.20
2022-11-24T18:31:35.608Z,11.43
2022-11-24T18:41:44.651Z,12.35
2022-11-24T18:46:47.806Z,15.55
2022-11-24T18:51:52.825Z,9.73
2022-11-24T18:57:01.750Z,16.90
2022-11-24T19:02:06.483Z,14.98
2022-11-24T19:07:11.112Z,17.90
2022-11-24T19:12:14.461Z,15.70
2022-11-24T19:17:18.142Z,11.13
2022-11-24T19:22:22.767Z,20.38
2022-11-24T19:27:25.900Z,31.15
2022-11-24T19:32:29.042Z,36.83
2022-11-24T19:37:33.646Z,105.18
2022-11-24T19:42:36.939Z,125.47
2022-11-24T19:47:40.083Z,104.15
2022-11-24T19:52:44.666Z,110.47
2022-11-24T19:57:47.797Z,65.97
2022-11-24T20:02:51.755Z,18.58
2022-11-24T20:07:56.426Z,18.13
2022-11-24T20:12:59.629Z,16.60
2022-11-24T20:18:03.063Z,20.58
2022-11-24T20:23:07.600Z,16.35
2022-11-24T20:28:11.800Z,21.20
2022-11-24T20:33:14.948Z,17.77
2022-11-24T20:38:19.543Z,15.60
2022-11-24T20:43:22.705Z,24.90
2022-11-24T20:48:25.855Z,128.02
2022-11-24T20:53:30.419Z,14.85
2022-11-24T20:58:33.961Z,109.70
2022-11-24T21:03:43.076Z,34.80
2022-11-24T21:08:48.214Z,32.97
2022-11-24T21:13:52.188Z,20.42
2022-11-24T21:18:59.340Z,17.42
2022-11-24T21:24:04.796Z,11.75
2022-11-24T21:29:08.927Z,9.40
2022-11-24T21:34:16.486Z,9.87
2022-11-24T21:39:21.116Z,6.80
2022-11-24T21:44:25.862Z,9.52
2022-11-24T21:49:29.731Z,5.95
2022-11-24T21:54:34.490Z,8.07
2022-11-24T22:04:40.854Z,7.43
2022-11-24T22:09:46.914Z,7.20
2022-11-24T22:14:50.229Z,7.15
2022-11-24T22:19:53.395Z,6.00
2022-11-24T22:24:58.039Z,8.70
2022-11-24T22:30:02.799Z,8.65
2022-11-24T22:35:07.145Z,7.00
2022-11-24T22:40:12.677Z,8.50
2022-11-24T22:45:15.985Z,8.45
2022-11-24T22:50:19.308Z,7.40
2022-11-24T22:55:24.037Z,11.90
2022-11-24T23:00:27.304Z,10.90
2022-11-24T23:05:30.497Z,12.05
2022-11-24T23:10:35.421Z,9.45
2022-11-24T23:20:42.028Z,10.90
2022-11-24T23:25:46.912Z,9.93
2022-11-24T23:35:53.533Z,11.10
2022-11-24T23:40:58.528Z,8.80
2022-11-24T23:46:06.032Z,12.00
2022-11-24T23:51:13.078Z,11.82
2022-11-24T23:56:19.997Z,16.48
